Terminal Aerodrome Forecast
Issued by NWS Tulsa, OK

Home | Current Version | Previous Version | Text Only | Print | Product List | Glossary On
Versions: 1 2 3 4 5 6 7 8 9 10 11 12 13 14 15 16 17 18 19
000
FTUS44 KTSA 041120
TAFFSM
TAF
KFSM 041120Z 0412/0512 00000KT 1/4SM FG VV002
      TEMPO 0412/0415 4SM BR SCT002
     FM041500 26005KT P6SM SCT050 SCT250
     FM042000 24005KT P6SM VCTS BKN050CB
     FM050100 VRB04KT P6SM BKN100=

USA.gov is the U.S. government's official web portal to all federal, state and local government web resources and services.